Time;durP1;ratioP1;P1;durP2;ratioP2;P2;SDS_P1;SDS_P2;PMS_P1;PMS_P2;Temp;Humidity;BMP_temperature;BMP_pressure;BME280_temperature;BME280_humidity;BME280_pressure;Samples;Min_cycle;Max_cycle;Signal;HPM_P1;HPM_P2
2023/05/01 00:02:56;;;;;;;37.97;22.98;;;;;;;10.05;93.80;97655.13;10364188;28;20065;-50
2023/05/01 00:07:55;;;;;;;33.13;19.80;;;;;;;9.78;93.89;97625.75;10364033;28;20032;-52
2023/05/01 00:12:54;;;;;;;33.13;19.35;;;;;;;9.84;93.90;97675.03;10363717;28;20846;-50
2023/05/01 00:17:53;;;;;;;28.98;18.40;;;;;;;9.60;94.45;97641.31;10363622;28;20465;-52
2023/05/01 00:22:52;;;;;;;28.23;16.83;;;;;;;9.73;93.81;97679.31;10363341;28;20108;-52
2023/05/01 00:27:51;;;;;;;29.00;17.52;;;;;;;9.64;94.59;97668.94;10362953;28;20108;-50
2023/05/01 00:32:50;;;;;;;31.02;17.48;;;;;;;9.65;93.75;97676.72;10362831;28;20033;-53
2023/05/01 00:37:49;;;;;;;30.00;17.70;;;;;;;9.62;94.30;97673.25;10362947;28;20574;-51
2023/05/01 00:42:48;;;;;;;;;;;;;;;9.58;94.00;97680.16;10363296;28;20137;-50
2023/05/01 00:47:47;;;;;;;30.58;18.58;;;;;;;9.44;94.33;97671.50;10362250;28;20011;-52
2023/05/01 00:52:46;;;;;;;28.70;18.27;;;;;;;9.50;93.84;97692.25;10362397;28;20029;-49
2023/05/01 00:57:45;;;;;;;32.75;19.77;;;;;;;9.47;94.12;97698.28;10361151;28;20036;-50
2023/05/01 01:02:45;;;;;;;31.20;18.15;;;;;;;9.31;94.05;97665.44;10361865;28;20547;-50
2023/05/01 01:08:27;;;;;;;32.67;18.27;;;;;;;9.35;94.34;97688.75;10361893;28;20353;-52
2023/05/01 01:13:31;;;;;;;39.38;23.02;;;;;;;9.26;95.05;97691.28;10360580;28;20139;-52
2023/05/01 01:18:41;;;;;;;35.70;19.17;;;;;;;9.18;95.24;97698.13;10361083;28;20121;-53
2023/05/01 01:24:11;;;;;;;35.88;19.65;;;;;;;9.06;95.24;97695.50;10361470;28;20064;-52
2023/05/01 01:29:42;;;;;;;;;;;;;;;9.02;94.76;97699.81;10361543;28;20112;-52
2023/05/01 01:34:52;;;;;;;;;;;;;;;8.99;94.48;97698.94;10369027;28;19956;-52
2023/05/01 01:40:03;;;;;;;31.60;17.35;;;;;;;8.85;94.61;97697.13;10360511;28;19991;-52
2023/05/01 01:45:10;;;;;;;31.13;17.60;;;;;;;8.85;94.58;97702.31;10360670;28;20072;-52
2023/05/01 01:50:11;;;;;;;30.35;17.00;;;;;;;8.83;94.44;97704.06;10359641;28;20129;-53
2023/05/01 01:55:12;;;;;;;27.58;17.20;;;;;;;8.80;94.31;97704.03;10360683;28;20123;-50
2023/05/01 02:00:13;;;;;;;27.92;16.50;;;;;;;8.70;94.24;97697.94;10359482;28;20076;-50
2023/05/01 02:05:16;;;;;;;36.28;17.85;;;;;;;8.55;94.32;97681.47;10360041;28;20061;-51
2023/05/01 02:10:16;;;;;;;34.63;18.52;;;;;;;8.65;94.50;97691.03;10359483;28;20577;-50
2023/05/01 02:15:20;;;;;;;31.27;18.70;;;;;;;8.60;94.75;97685.81;10360412;28;20076;-52
2023/05/01 02:20:21;;;;;;;31.80;18.60;;;;;;;8.57;94.47;97690.09;10358900;28;20059;-52
2023/05/01 02:25:20;;;;;;;31.52;18.50;;;;;;;8.51;94.34;97691.78;10359570;28;21267;-51
2023/05/01 02:30:19;;;;;;;29.30;17.55;;;;;;;8.47;94.14;97687.44;10359201;28;20125;-52
2023/05/01 02:35:18;;;;;;;33.63;17.17;;;;;;;8.37;95.04;97690.84;10359921;28;20029;-52
2023/05/01 02:40:17;;;;;;;31.85;18.52;;;;;;;8.19;95.17;97662.28;10358578;28;20025;-52
2023/05/01 02:45:22;;;;;;;35.85;20.13;;;;;;;8.23;96.35;97690.75;10363038;28;20064;-52
2023/05/01 02:50:22;;;;;;;33.30;18.38;;;;;;;8.23;95.46;97695.91;10369889;28;20921;-51
2023/05/01 02:55:21;;;;;;;42.30;21.17;;;;;;;8.16;96.54;97701.91;10370345;28;20060;-51
2023/05/01 03:00:20;;;;;;;42.08;21.45;;;;;;;8.11;96.51;97697.53;10369568;28;20087;-52
2023/05/01 03:05:19;;;;;;;;;;;;;;;8.12;96.54;97699.28;10371675;28;20068;-52
2023/05/01 03:10:18;;;;;;;41.92;22.98;;;;;;;8.13;96.51;97711.34;10369604;28;19986;-52
2023/05/01 03:15:17;;;;;;;40.25;22.90;;;;;;;8.11;96.75;97721.69;10369242;28;20067;-52
2023/05/01 03:20:16;;;;;;;;;;;;;;;8.03;97.23;97726.75;10369923;28;20060;-50
2023/05/01 03:25:15;;;;;;;57.67;26.55;;;;;;;8.09;97.97;97732.00;10368995;28;19955;-51
2023/05/01 03:30:14;;;;;;;53.13;24.27;;;;;;;8.04;97.67;97700.09;10368672;28;20078;-52
2023/05/01 03:35:13;;;;;;;46.60;23.38;;;;;;;8.44;97.24;97739.16;10368904;28;20076;-52
2023/05/01 03:40:12;;;;;;;61.00;26.13;;;;;;;8.59;97.12;97745.28;10368014;28;20040;-52
2023/05/01 03:45:11;;;;;;;61.63;27.17;;;;;;;8.77;96.95;97745.41;10366678;28;20071;-52
2023/05/01 03:50:10;;;;;;;64.13;29.00;;;;;;;8.14;96.18;97614.88;10364847;28;20041;-51
2023/05/01 03:55:09;;;;;;;122.50;30.15;;;;;;;8.96;96.43;97746.38;10364953;28;20502;-52
2023/05/01 04:00:10;;;;;;;81.10;30.30;;;;;;;9.02;95.99;97755.88;10364239;28;20585;-53
2023/05/01 04:05:09;;;;;;;49.10;22.65;;;;;;;8.95;96.05;97760.19;10364390;28;20356;-52
2023/05/01 04:10:08;;;;;;;75.35;24.67;;;;;;;8.94;95.62;97764.47;10364281;28;20282;-52
2023/05/01 04:15:08;;;;;;;51.88;22.88;;;;;;;8.71;95.51;97776.41;10364081;28;20670;-51
2023/05/01 04:20:08;;;;;;;62.83;25.10;;;;;;;8.34;96.29;97778.75;10363311;28;20135;-50
2023/05/01 04:25:07;;;;;;;83.10;22.88;;;;;;;8.33;95.40;97779.56;10363199;28;20053;-52
2023/05/01 04:30:07;;;;;;;;;;;;;;;8.23;96.02;97777.78;10363185;28;20123;-52
2023/05/01 04:35:06;;;;;;;92.95;23.00;;;;;;;8.11;96.42;97788.88;10364011;28;19959;-51
2023/05/01 04:40:05;;;;;;;;;;;;;;;8.14;97.33;97788.03;10363227;28;20112;-52
2023/05/01 04:45:05;;;;;;;112.10;29.45;;;;;;;8.28;97.74;97787.28;10362840;28;19951;-52
2023/05/01 04:50:04;;;;;;;294.25;32.58;;;;;;;8.60;98.29;97790.97;10361769;28;20120;-52
2023/05/01 04:55:04;;;;;;;79.63;26.20;;;;;;;8.97;98.43;97788.66;10362502;28;20155;-50
2023/05/01 05:00:03;;;;;;;74.55;23.70;;;;;;;9.29;97.77;97787.13;10361731;28;20060;-52
2023/05/01 05:05:02;;;;;;;78.20;22.13;;;;;;;9.51;96.94;97795.88;10362465;28;20131;-52
2023/05/01 05:10:01;;;;;;;97.10;26.52;;;;;;;9.55;96.35;97789.81;10360984;28;20064;-52
2023/05/01 05:15:00;;;;;;;89.15;28.88;;;;;;;9.73;95.91;97808.88;10361479;28;20116;-52
2023/05/01 05:19:59;;;;;;;69.43;25.60;;;;;;;9.85;94.58;97813.25;10361714;28;20021;-53
2023/05/01 05:25:02;;;;;;;55.33;18.10;;;;;;;9.92;94.95;97815.00;10361498;28;20040;-52
2023/05/01 05:30:05;;;;;;;47.70;17.35;;;;;;;9.97;95.14;97824.50;10361080;28;20128;-53
2023/05/01 05:35:05;;;;;;;37.95;14.50;;;;;;;10.26;93.41;97835.78;10360740;28;20128;-53
2023/05/01 05:40:04;;;;;;;24.98;13.43;;;;;;;10.51;93.25;97834.94;10360773;28;20065;-52
2023/05/01 05:45:04;;;;;;;29.33;12.52;;;;;;;10.83;91.96;97828.91;10362954;28;20608;-52
2023/05/01 05:50:05;;;;;;;24.77;13.63;;;;;;;11.23;90.71;97824.53;10363477;28;20084;-52
2023/05/01 05:55:05;;;;;;;16.05;12.25;;;;;;;11.49;89.30;97830.53;10363774;28;20479;-51
2023/05/01 06:00:04;;;;;;;16.40;13.05;;;;;;;11.69;88.75;97828.72;10363653;28;20072;-53
2023/05/01 06:05:03;;;;;;;20.08;13.60;;;;;;;11.68;87.07;97834.78;10358616;28;20490;-53
2023/05/01 06:10:05;;;;;;;22.88;18.60;;;;;;;11.57;87.09;97833.94;10363090;28;20060;-53
2023/05/01 06:15:05;;;;;;;20.88;16.58;;;;;;;11.34;88.37;97834.91;10356832;28;20503;-52
2023/05/01 06:20:05;;;;;;;20.35;15.15;;;;;;;11.42;88.52;97840.94;10360212;28;20068;-53
2023/05/01 06:25:05;;;;;;;24.00;17.88;;;;;;;11.54;87.24;97847.81;10368395;28;20068;-52
2023/05/01 06:30:04;;;;;;;37.58;27.77;;;;;;;11.70;88.73;97846.03;10369776;28;20122;-52
2023/05/01 06:35:04;;;;;;;22.58;17.65;;;;;;;11.78;87.98;97849.47;10368954;28;20070;-53
2023/05/01 06:40:06;;;;;;;16.40;12.82;;;;;;;11.76;88.57;97856.41;10372207;28;20075;-52
2023/05/01 06:45:07;;;;;;;17.67;13.25;;;;;;;11.82;90.16;97856.38;10368712;28;20061;-52
2023/05/01 06:50:06;;;;;;;16.38;12.80;;;;;;;11.85;90.07;97855.50;10364202;28;20159;-53
2023/05/01 06:55:06;;;;;;;20.55;14.90;;;;;;;12.03;90.38;97865.81;10367333;28;20143;-52
2023/05/01 07:00:05;;;;;;;18.08;12.57;;;;;;;12.11;89.21;97868.41;10365690;28;20060;-52
2023/05/01 07:05:05;;;;;;;18.77;12.18;;;;;;;12.06;89.09;97854.53;10366297;28;20119;-53
2023/05/01 07:10:05;;;;;;;20.48;13.73;;;;;;;12.51;89.73;97873.38;10367625;28;20044;-52
2023/05/01 07:15:05;;;;;;;16.65;12.82;;;;;;;12.67;87.11;97885.44;10366487;28;20119;-52
2023/05/01 07:20:04;;;;;;;15.48;11.52;;;;;;;13.07;86.14;97879.88;10366312;28;20151;-53
2023/05/01 07:25:04;;;;;;;16.27;11.23;;;;;;;12.72;82.93;97784.69;10366783;28;20076;-52
2023/05/01 07:30:04;;;;;;;13.30;10.10;;;;;;;13.38;81.96;97887.41;10364288;28;20475;-52
2023/05/01 07:35:03;;;;;;;13.30;10.82;;;;;;;13.76;81.63;97891.38;10364328;28;20128;-53
2023/05/01 07:40:03;;;;;;;11.50;9.63;;;;;;;13.89;79.24;97860.78;10365472;28;20081;-53
2023/05/01 07:45:02;;;;;;;13.65;10.38;;;;;;;14.44;78.99;97890.50;10365110;28;20111;-51
2023/05/01 07:50:08;;;;;;;13.63;10.52;;;;;;;14.78;77.45;97885.66;10363740;28;20112;-51
2023/05/01 07:55:07;;;;;;;11.32;8.63;;;;;;;15.14;76.01;97870.28;10365207;28;20067;-51
2023/05/01 08:00:07;;;;;;;10.70;8.15;;;;;;;15.29;74.99;97830.75;10364462;28;20144;-51
2023/05/01 08:05:06;;;;;;;7.85;6.93;;;;;;;15.75;72.40;97878.72;10361799;28;20123;-51
2023/05/01 08:10:05;;;;;;;9.07;6.78;;;;;;;15.88;68.99;97872.41;10363704;28;20120;-51
2023/05/01 08:15:05;;;;;;;10.00;6.32;;;;;;;16.07;67.86;97855.41;10362931;28;20125;-51
2023/05/01 08:20:04;;;;;;;8.45;6.20;;;;;;;16.34;64.49;97875.78;10358103;28;20547;-52
2023/05/01 08:25:04;;;;;;;8.98;5.97;;;;;;;16.46;63.19;97865.88;10362985;28;20564;-51
2023/05/01 08:30:04;;;;;;;23.88;6.50;;;;;;;16.72;63.70;97870.53;10361647;28;20128;-52
2023/05/01 08:35:03;;;;;;;7.50;5.72;;;;;;;16.73;62.86;97868.75;10363048;28;20084;-52
2023/05/01 08:40:07;;;;;;;6.88;5.70;;;;;;;17.04;60.29;97868.03;10309547;28;20120;-51
2023/05/01 08:45:10;;;;;;;6.82;5.53;;;;;;;17.22;57.14;97869.34;10322468;28;20095;-52
2023/05/01 08:50:13;;;;;;;8.38;5.32;;;;;;;17.39;56.51;97858.41;10324858;28;20078;-51
2023/05/01 08:55:13;;;;;;;10.15;5.28;;;;;;;17.68;56.26;97840.09;10335237;28;20095;-52
2023/05/01 09:00:20;;;;;;;8.23;5.22;;;;;;;17.50;56.46;97794.25;10365330;28;20532;-52
2023/05/01 09:05:20;;;;;;;5.45;4.75;;;;;;;18.03;56.90;97846.13;10364368;28;20064;-52
2023/05/01 09:10:19;;;;;;;6.53;5.00;;;;;;;18.24;55.17;97838.50;10364929;28;20088;-52
2023/05/01 09:15:18;;;;;;;9.27;5.78;;;;;;;18.15;53.42;97835.25;10364129;28;20049;-52
2023/05/01 09:20:18;;;;;;;6.75;5.50;;;;;;;18.01;52.92;97795.44;10364069;28;20021;-52
2023/05/01 09:25:18;;;;;;;7.57;5.57;;;;;;;18.16;53.26;97847.47;10364221;28;20071;-51
2023/05/01 09:30:34;;;;;;;7.53;4.72;;;;;;;18.55;54.08;97828.78;10363480;28;20068;-52
2023/05/01 09:35:51;;;;;;;6.05;4.88;;;;;;;18.61;52.97;97833.81;10366493;28;20084;-53
2023/05/01 09:40:52;;;;;;;10.68;4.70;;;;;;;18.94;50.26;97840.69;10360402;28;20068;-53
2023/05/01 09:46:05;;;;;;;8.05;4.40;;;;;;;19.01;50.20;97823.78;10360036;28;20487;-53
2023/05/01 09:51:22;;;;;;;6.60;4.43;;;;;;;19.22;50.02;97817.78;10356612;28;20135;-53
2023/05/01 09:56:22;;;;;;;6.38;4.43;;;;;;;19.19;49.58;97819.69;10356013;28;20148;-53
2023/05/01 10:01:42;;;;;;;5.88;4.10;;;;;;;19.46;47.90;97815.19;10358870;28;20132;-53
2023/05/01 10:06:40;;;;;;;5.25;4.47;;;;;;;19.84;47.97;97802.47;10359313;28;20080;-54
2023/05/01 10:11:54;;;;;;;6.30;4.78;;;;;;;19.66;47.27;97802.22;10359189;28;20033;-53
2023/05/01 10:16:55;;;;;;;5.70;4.47;;;;;;;19.76;46.85;97789.56;10360585;28;20095;-53
2023/05/01 10:21:54;;;;;;;4.28;3.88;;;;;;;19.59;47.35;97810.41;10359897;28;20060;-53
2023/05/01 10:26:54;;;;;;;4.90;4.15;;;;;;;19.82;46.34;97794.59;10361427;28;20617;-53
2023/05/01 10:31:54;;;;;;;5.30;4.30;;;;;;;19.72;44.66;97803.78;10360544;28;20116;-53
2023/05/01 10:36:59;;;;;;;4.72;3.50;;;;;;;20.31;43.77;97791.00;10359610;28;20099;-53
2023/05/01 10:42:13;;;;;;;6.80;3.80;;;;;;;20.87;42.49;97786.06;10356874;28;20064;-54
2023/05/01 10:47:26;;;;;;;5.38;3.80;;;;;;;21.64;43.58;97782.75;10357597;28;20171;-54
2023/05/01 10:52:25;;;;;;;4.63;3.70;;;;;;;21.94;40.63;97785.78;10361317;28;20075;-54
2023/05/01 10:57:41;;;;;;;5.20;3.63;;;;;;;21.51;40.72;97785.09;10357248;28;20032;-54
2023/05/01 11:02:40;;;;;;;5.18;3.78;;;;;;;20.99;39.98;97779.41;10355447;28;20080;-53
2023/05/01 11:07:39;;;;;;;5.10;3.65;;;;;;;20.87;40.42;97774.69;10360807;28;20079;-53
2023/05/01 11:12:47;;;;;;;5.47;3.70;;;;;;;20.83;40.16;97763.38;10363509;28;20139;-54
2023/05/01 11:17:48;;;;;;;3.80;3.40;;;;;;;20.91;40.39;97777.13;10365951;28;20559;-54
2023/05/01 11:22:50;;;;;;;4.70;3.58;;;;;;;21.00;40.20;97773.22;10362706;28;20152;-53
2023/05/01 11:27:51;;;;;;;3.85;3.33;;;;;;;21.31;39.76;97774.53;10363403;28;20550;-54
2023/05/01 11:32:50;;;;;;;5.72;3.72;;;;;;;21.47;39.92;97780.84;10363522;28;20131;-54
2023/05/01 11:37:54;;;;;;;3.85;3.45;;;;;;;21.37;40.27;97779.56;10364548;28;21344;-54
2023/05/01 11:43:07;;;;;;;6.28;3.45;;;;;;;21.38;38.23;97770.69;10364164;28;20136;-54
2023/05/01 11:48:15;;;;;;;4.43;3.28;;;;;;;21.11;39.92;97773.59;10365705;28;20139;-54
2023/05/01 11:53:14;;;;;;;5.03;3.47;;;;;;;20.84;39.26;97722.03;10363123;28;20079;-53
2023/05/01 11:58:14;;;;;;;4.20;3.80;;;;;;;21.07;40.09;97784.34;10366475;28;20486;-54
2023/05/01 12:03:13;;;;;;;5.20;3.95;;;;;;;21.19;39.61;97788.25;10364776;28;20064;-54
2023/05/01 12:08:17;;;;;;;7.60;4.20;;;;;;;20.95;42.66;97803.34;10366326;28;20495;-53
2023/05/01 12:13:16;;;;;;;8.38;4.43;;;;;;;20.52;44.34;97799.84;10361648;28;20518;-54
2023/05/01 12:18:17;;;;;;;7.70;4.55;;;;;;;20.04;43.62;97825.41;10365865;28;20503;-53
2023/05/01 12:23:16;;;;;;;6.72;4.40;;;;;;;19.48;45.47;97841.47;10363043;28;20127;-53
2023/05/01 12:28:18;;;;;;;13.65;5.15;;;;;;;18.70;52.46;97852.88;10363191;28;20483;-52
2023/05/01 12:33:19;;;;;;;19.05;6.88;;;;;;;17.69;63.57;97861.97;10365373;28;20076;-52
2023/05/01 12:38:22;;;;;;;16.65;7.03;;;;;;;16.50;69.09;97817.75;10366279;28;20499;-52
2023/05/01 12:43:29;;;;;;;9.70;5.10;;;;;;;16.22;68.66;97861.19;10365899;28;20068;-53
2023/05/01 12:48:29;;;;;;;10.00;5.47;;;;;;;16.04;70.37;97876.44;10361747;28;20140;-52
2023/05/01 12:53:29;;;;;;;10.15;5.28;;;;;;;16.05;73.88;97875.50;10364041;28;20083;-52
2023/05/01 12:58:37;;;;;;;6.55;4.80;;;;;;;16.04;72.99;97862.44;10362360;28;20068;-52
2023/05/01 13:03:42;;;;;;;7.57;5.33;;;;;;;16.00;73.29;97861.66;10361409;28;20072;-52
2023/05/01 13:08:41;;;;;;;5.50;4.05;;;;;;;15.93;71.40;97847.00;10360051;28;20073;-52
2023/05/01 13:13:42;;;;;;;6.15;4.72;;;;;;;16.05;70.79;97851.97;10361595;28;20127;-52
2023/05/01 13:18:49;;;;;;;6.97;4.65;;;;;;;16.10;69.72;97870.19;10361140;28;20061;-52
2023/05/01 13:23:59;;;;;;;8.20;5.50;;;;;;;16.32;70.75;97862.72;10360801;28;20447;-52
2023/05/01 13:29:00;;;;;;;5.85;4.25;;;;;;;16.24;68.43;97867.28;10358755;28;20120;-52
2023/05/01 13:33:59;;;;;;;6.03;3.25;;;;;;;16.30;66.35;97865.38;10362963;28;20135;-53
2023/05/01 13:38:58;;;;;;;6.45;4.15;;;;;;;16.46;68.73;97863.25;10359760;28;20132;-52
2023/05/01 13:43:57;;;;;;;3.53;2.80;;;;;;;16.32;66.91;97840.91;10362556;28;20251;-52
2023/05/01 13:49:06;;;;;;;3.63;2.90;;;;;;;16.69;66.79;97851.38;10360683;28;20056;-52
2023/05/01 13:54:07;;;;;;;3.40;2.67;;;;;;;17.40;65.27;97854.88;10360306;28;20068;-52
2023/05/01 13:59:07;;;;;;;4.30;3.25;;;;;;;17.90;63.65;97850.03;10359226;28;20060;-52
2023/05/01 14:04:09;;;;;;;5.40;4.00;;;;;;;17.93;61.33;97760.66;10360131;28;20147;-53
2023/05/01 14:09:08;;;;;;;6.53;3.92;;;;;;;18.79;55.12;97852.56;10359438;28;20129;-52
2023/05/01 14:14:08;;;;;;;3.78;3.38;;;;;;;19.06;54.53;97848.16;10359755;28;20154;-53
2023/05/01 14:19:07;;;;;;;4.50;3.42;;;;;;;19.37;52.77;97834.81;10360284;28;20115;-52
2023/05/01 14:24:07;;;;;;;2.90;2.60;;;;;;;19.66;53.18;97819.78;10359748;28;20585;-53
2023/05/01 14:29:13;;;;;;;3.70;2.70;;;;;;;19.72;49.79;97811.69;10359925;28;20541;-53
2023/05/01 14:34:16;;;;;;;2.80;2.38;;;;;;;19.86;51.28;97809.38;10360479;28;20125;-53
2023/05/01 14:39:15;;;;;;;3.67;2.72;;;;;;;19.94;47.85;97808.22;10351437;28;20564;-54
2023/05/01 14:44:17;;;;;;;3.30;2.55;;;;;;;20.20;46.13;97809.88;10361872;28;20112;-53
2023/05/01 14:49:18;;;;;;;6.53;2.63;;;;;;;20.00;47.18;97789.53;10364316;28;20512;-53
2023/05/01 14:54:19;;;;;;;4.88;3.15;;;;;;;20.06;48.76;97808.59;10365333;28;20119;-53
2023/05/01 14:59:18;;;;;;;4.68;2.85;;;;;;;20.17;50.63;97805.56;10365603;28;20120;-53
2023/05/01 15:04:17;;;;;;;3.28;2.30;;;;;;;20.14;51.25;97810.97;10363933;28;20025;-53
2023/05/01 15:09:16;;;;;;;2.55;2.35;;;;;;;19.91;48.45;97808.31;10364461;28;20124;-53
2023/05/01 15:14:15;;;;;;;2.30;2.10;;;;;;;19.63;47.63;97806.75;10363965;28;20112;-54
2023/05/01 15:19:14;;;;;;;5.53;2.72;;;;;;;19.62;48.51;97812.91;10366505;28;20130;-53
2023/05/01 15:24:13;;;;;;;2.70;2.15;;;;;;;19.74;49.38;97817.72;10365378;28;20037;-52
2023/05/01 15:29:12;;;;;;;4.53;2.80;;;;;;;19.70;52.04;97812.63;10365350;28;20100;-52
2023/05/01 15:34:11;;;;;;;5.72;2.58;;;;;;;19.56;50.84;97819.28;10365367;28;20094;-53
2023/05/01 15:39:12;;;;;;;3.50;2.60;;;;;;;19.60;52.06;97814.72;10363888;28;21108;-53
2023/05/01 15:44:10;;;;;;;4.72;2.75;;;;;;;19.54;51.58;97826.31;10359309;28;20191;-53
2023/05/01 15:49:09;;;;;;;3.92;2.70;;;;;;;19.39;51.17;97822.47;10360105;28;20750;-53
2023/05/01 15:54:08;;;;;;;3.40;2.72;;;;;;;19.28;51.51;97814.09;10364290;28;20044;-53
2023/05/01 15:59:07;;;;;;;3.38;2.47;;;;;;;19.20;50.59;97819.59;10364757;28;20124;-53
2023/05/01 16:04:07;;;;;;;5.00;2.80;;;;;;;18.82;50.87;97750.78;10364138;28;20072;-53
2023/05/01 16:09:06;;;;;;;6.32;3.28;;;;;;;19.12;51.03;97819.03;10364972;28;20117;-53
2023/05/01 16:14:11;;;;;;;7.32;3.80;;;;;;;18.96;51.75;97818.69;10362935;28;20071;-52
2023/05/01 16:19:13;;;;;;;13.05;7.57;;;;;;;18.92;54.47;97822.31;10363686;28;20114;-53
2023/05/01 16:24:13;;;;;;;10.27;6.80;;;;;;;18.68;56.34;97818.75;10361348;28;20144;-52
2023/05/01 16:29:12;;;;;;;9.82;6.03;;;;;;;18.54;56.25;97839.31;10357440;28;20133;-52
2023/05/01 16:34:13;;;;;;;7.93;5.30;;;;;;;18.40;56.97;97834.50;10363321;28;20099;-52
2023/05/01 16:39:14;;;;;;;7.30;4.20;;;;;;;18.04;58.40;97841.75;10363144;28;20447;-53
2023/05/01 16:44:15;;;;;;;8.13;4.20;;;;;;;17.63;59.67;97801.75;10363504;28;20064;-53
2023/05/01 16:49:14;;;;;;;8.25;3.65;;;;;;;17.66;61.30;97839.28;10362763;28;20076;-52
2023/05/01 16:54:14;;;;;;;5.07;3.60;;;;;;;17.48;62.00;97845.03;10363131;28;20489;-52
2023/05/01 16:59:13;;;;;;;8.95;4.50;;;;;;;17.23;61.85;97837.81;10366988;28;20907;-53
2023/05/01 17:04:13;;;;;;;9.50;6.35;;;;;;;17.09;61.67;97842.56;10364724;28;20449;-53
2023/05/01 17:09:12;;;;;;;10.38;6.30;;;;;;;16.86;61.15;97857.13;10365739;28;20579;-52
2023/05/01 17:14:11;;;;;;;9.80;5.32;;;;;;;16.63;61.67;97856.75;10364414;28;20580;-52
2023/05/01 17:19:10;;;;;;;9.00;5.38;;;;;;;16.38;62.34;97861.72;10364698;28;20107;-52
2023/05/01 17:24:11;;;;;;;11.43;6.03;;;;;;;16.07;63.69;97871.13;10364435;28;20072;-52
2023/05/01 17:29:10;;;;;;;12.68;6.95;;;;;;;15.79;64.66;97885.66;10361625;28;20854;-52
2023/05/01 17:34:09;;;;;;;9.30;6.03;;;;;;;15.57;65.93;97893.88;10363235;28;20684;-51
2023/05/01 17:39:08;;;;;;;10.45;6.32;;;;;;;15.37;66.92;97896.88;10365507;28;20383;-52
2023/05/01 17:44:07;;;;;;;;;;;;;;;15.18;67.86;97898.94;10361666;28;20033;-51
2023/05/01 17:49:06;;;;;;;10.30;6.33;;;;;;;15.07;67.95;97908.72;10359792;28;20025;-52
2023/05/01 17:54:05;;;;;;;7.30;5.50;;;;;;;14.94;68.20;97912.41;10359368;28;20072;-52
2023/05/01 17:59:04;;;;;;;;;;;;;;;14.79;68.98;97918.75;10361143;28;20028;-51
2023/05/01 18:04:02;;;;;;;10.87;6.40;;;;;;;14.75;69.23;97919.66;10359589;28;20373;-52
2023/05/01 18:09:02;;;;;;;;;;;;;;;14.76;70.71;97924.88;10360995;28;20706;-52
2023/05/01 18:14:01;;;;;;;22.05;13.00;;;;;;;14.70;72.02;97927.56;10359789;28;19991;-51
2023/05/01 18:19:00;;;;;;;18.23;12.75;;;;;;;14.62;72.84;97932.03;10368333;28;20060;-51
2023/05/01 18:24:01;;;;;;;;;;;;;;;14.54;73.62;97944.31;10368789;28;20040;-51
2023/05/01 18:29:01;;;;;;;17.17;8.55;;;;;;;14.56;73.86;97953.84;10367937;28;20004;-52
2023/05/01 18:34:00;;;;;;;19.35;10.27;;;;;;;14.55;73.48;97954.75;10366676;28;20128;-52
2023/05/01 18:39:00;;;;;;;21.38;11.73;;;;;;;14.50;74.26;97953.06;10367907;28;20049;-51
2023/05/01 18:44:00;;;;;;;25.13;14.25;;;;;;;14.42;74.46;97961.00;10367125;28;20115;-51
2023/05/01 18:48:59;;;;;;;27.20;17.92;;;;;;;14.29;75.58;97975.97;10341658;28;20144;-50
2023/05/01 18:53:58;;;;;;;;;;;;;;;14.12;75.94;97968.34;10296062;28;20136;-52
2023/05/01 18:58:57;;;;;;;18.50;11.60;;;;;;;13.93;76.16;97959.00;10003983;28;20991;-50
2023/05/01 19:03:58;;;;;;;;;;;;;;;13.93;76.09;97972.03;10322392;28;20120;-51
2023/05/01 19:08:57;;;;;;;30.33;18.20;;;;;;;13.82;76.57;97982.59;10367998;28;19995;-51
2023/05/01 19:13:57;;;;;;;19.00;13.32;;;;;;;13.66;77.22;97981.03;10366236;28;20083;-52
2023/05/01 19:18:56;;;;;;;18.85;12.32;;;;;;;13.38;77.71;97970.81;10366025;28;20104;-51
2023/05/01 19:23:55;;;;;;;;;;;;;;;13.35;78.33;97982.13;10367846;28;20020;-52
2023/05/01 19:28:54;;;;;;;22.45;13.38;;;;;;;13.21;79.01;97991.81;10365742;28;20015;-51
2023/05/01 19:33:53;;;;;;;;;;;;;;;13.10;79.93;97984.06;10363383;28;20033;-51
2023/05/01 19:38:52;;;;;;;17.70;11.02;;;;;;;13.00;80.22;97987.63;10365302;28;20020;-50
2023/05/01 19:43:51;;;;;;;17.67;11.85;;;;;;;12.80;81.34;97989.50;10364462;28;20033;-51
2023/05/01 19:48:50;;;;;;;;;;;;;;;12.69;82.08;97997.34;10364939;28;20538;-50
2023/05/01 19:53:49;;;;;;;24.45;15.65;;;;;;;12.55;83.01;98010.44;10362393;28;20713;-51
2023/05/01 19:58:48;;;;;;;;;;;;;;;12.33;84.61;97995.81;10362842;28;20040;-51
2023/05/01 20:03:47;;;;;;;22.33;15.25;;;;;;;12.26;84.10;98002.72;10364533;28;19960;-52
2023/05/01 20:08:47;;;;;;;;;;;;;;;12.12;84.89;97989.78;10358706;28;20033;-52
2023/05/01 20:13:46;;;;;;;21.15;15.40;;;;;;;11.97;85.42;97993.28;10365854;28;19952;-52
2023/05/01 20:18:45;;;;;;;25.00;15.88;;;;;;;11.68;85.59;97978.59;10364541;28;20037;-53
2023/05/01 20:23:44;;;;;;;;;;;;;;;11.83;85.85;98013.25;10364402;28;20485;-52
2023/05/01 20:28:43;;;;;;;20.27;13.50;;;;;;;11.57;85.61;97985.59;10363353;28;19962;-52
2023/05/01 20:33:42;;;;;;;17.25;13.35;;;;;;;11.64;85.88;98012.41;10362297;28;20502;-51
2023/05/01 20:38:46;;;;;;;26.88;12.32;;;;;;;11.09;85.47;97934.50;10363300;28;20542;-51
2023/05/01 20:43:45;;;;;;;15.88;10.45;;;;;;;11.27;85.52;97985.56;10360442;28;20132;-51
2023/05/01 20:48:44;;;;;;;15.77;10.98;;;;;;;11.27;84.75;98015.03;10362869;28;20083;-53
2023/05/01 20:53:43;;;;;;;16.85;11.52;;;;;;;11.09;84.63;97987.31;10362573;28;20343;-51
2023/05/01 20:58:42;;;;;;;18.63;11.90;;;;;;;11.15;85.10;98012.41;10363101;28;20051;-51
2023/05/01 21:03:41;;;;;;;;;;;;;;;11.00;86.12;98008.06;10362305;28;20076;-51
2023/05/01 21:08:40;;;;;;;18.92;12.02;;;;;;;10.90;88.70;98015.00;10361446;28;19917;-51
2023/05/01 21:13:39;;;;;;;24.63;15.18;;;;;;;10.88;87.87;98032.28;10364398;28;20047;-51
2023/05/01 21:18:38;;;;;;;18.40;12.15;;;;;;;10.80;88.47;98031.41;10361457;28;20115;-51
2023/05/01 21:23:45;;;;;;;16.92;12.85;;;;;;;10.68;88.96;98027.00;10361118;28;20068;-51
2023/05/01 21:28:44;;;;;;;27.30;14.50;;;;;;;10.65;89.57;98028.75;10361594;28;20106;-50
2023/05/01 21:33:47;;;;;;;19.92;14.45;;;;;;;10.61;88.74;98031.34;10359495;28;20586;-49
2023/05/01 21:38:46;;;;;;;23.33;15.15;;;;;;;10.53;88.29;98033.03;10356704;28;20123;-51
2023/05/01 21:43:45;;;;;;;29.73;15.95;;;;;;;10.50;87.84;98032.16;10359519;28;20138;-51
2023/05/01 21:48:53;;;;;;;25.27;16.35;;;;;;;10.45;88.72;98045.13;10362189;28;20053;-52
2023/05/01 21:53:52;;;;;;;28.92;19.50;;;;;;;10.35;88.46;98030.34;10365500;28;20183;-51
2023/05/01 21:58:51;;;;;;;27.83;18.80;;;;;;;10.28;88.16;98039.81;10364733;28;20427;-51
2023/05/01 22:03:50;;;;;;;;;;;;;;;10.16;88.18;98047.56;10364647;28;20491;-51
2023/05/01 22:08:51;;;;;;;28.38;18.85;;;;;;;10.11;88.24;98044.94;10360948;28;20364;-51
2023/05/01 22:13:50;;;;;;;29.77;20.42;;;;;;;10.07;88.35;98044.91;10360633;28;20072;-50
2023/05/01 22:18:49;;;;;;;33.67;20.48;;;;;;;9.98;88.60;98050.94;10361490;28;20121;-51
2023/05/01 22:23:48;;;;;;;26.35;18.33;;;;;;;9.90;88.67;98050.00;10362290;28;20043;-49
2023/05/01 22:28:48;;;;;;;27.58;19.25;;;;;;;9.85;89.06;98051.69;10363837;28;20494;-51
2023/05/01 22:33:47;;;;;;;27.48;17.58;;;;;;;9.74;89.75;98043.84;10363669;28;20076;-50
2023/05/01 22:38:46;;;;;;;25.70;16.77;;;;;;;9.71;89.13;98039.50;10363078;28;20032;-51
2023/05/01 22:43:45;;;;;;;34.28;16.90;;;;;;;9.71;88.56;98033.47;10362297;28;20498;-49
2023/05/01 22:48:44;;;;;;;33.15;21.98;;;;;;;9.63;89.70;98041.19;10359610;28;20073;-50
2023/05/01 22:53:43;;;;;;;33.30;19.77;;;;;;;8.78;90.90;97928.25;10359206;28;20021;-48
2023/05/01 22:58:42;;;;;;;27.58;19.23;;;;;;;9.56;90.95;98049.78;10359445;28;20108;-49
2023/05/01 23:03:41;;;;;;;23.90;17.33;;;;;;;9.39;91.67;98038.38;10362501;28;20041;-51
2023/05/01 23:08:40;;;;;;;33.92;20.00;;;;;;;9.37;91.68;98038.38;10366083;28;20131;-48
2023/05/01 23:13:42;;;;;;;;;;;;;;;9.33;91.22;98040.09;10367421;28;20103;-51
2023/05/01 23:18:41;;;;;;;33.22;20.40;;;;;;;9.28;91.32;98034.00;10366610;28;19975;-51